Etusivu
METAR-TAF:

METAR-TAF

Lentoasemat :

Amman, Jordania

Leveyspiiri: 31-59N, Pituuspiiri: 035-59E, korkeus merenpinnasta: 767 m

Tämänhetkinen sää

Tämä raportti tehtiin 18 tuntia ja 12 minuuttia sitten, kello 15.00 UTC
Tuuli 4 kn lännestä/lounaasta
Lämpötila 16°C
Kosteus 55%
Ilmanpaine 1012 hPa
Näkyvyys: 4000 m
laajalle levinnyttä pölyä

METAR: OJAM 201500Z 24004KT 4000 DU NSC 16/07 Q1012 NOSIG

Aika: 11:12 (09:12 UTC)

Sääennuste

Tämä raportti tehtiin 22 tuntia ja 12 minuuttia sitten, kello 11.00 UTC
Ennuste voimassa 20. päivästä klo 12 UTC - 21. päivään klo 18 UTC
Tuuli 4 kn idästä/kaakosta
Näkyvyys: 5000 m
usvaa
Ajoittain
21. päivästä klo 02 UTC - 21. päivään klo 06 UTC
Tuuli 1 kn eri suunnista
Näkyvyys: 2500 m
savua
Tulossa
21. päivästä klo 06 UTC - 21. päivään klo 08 UTC
Tuuli 8 kn lännestä
Muutamia pilviä 3000 ft:n korkeudessa

TAF: OJAM 201100Z 2012/2118 12004KT 5000 HZ NSC TEMPO 2102/2106 VRB01KT 2500 FU BECMG 2106/2108 26008KT FEW030

Säähavainnot ja -ennusteet yli 4000 lentoasemalta (METAR- ja TAF-raportit).

Käytössä olevat sääasemat on merkitty karttaan keltaisilla ja punaisilla pisteillä.

Aseta hiiri pisteen päälle nähdäksesi sääaseman nimen.

Klikkaa sitten nähdäksesi säähavainnot ja -ennusteet.

Kartan vaihtaminen: klikkaa mustalla rastilla varustettuja vihreitä pisteitä, niin voit zoomata sisään; viivalla varustettua vihreää pistettä, niin voit zoomata ulos tai vihreitä nuolia, niin pääset viereisille kartoille.


METAR-TAF: